Aérodrome :
LOGIN :

S'inscrire | Disclaimer

   EN    FR    IT 

 










Légende :    VFR   VFR Marginal   IFR   IFR Intensif   IFR Très Intensif
Visi : 
Plafond : 
>= 8 km
>= 3000ft
5 à 8 km
1000 à 3000 ft
1500m à 5 km
500 à 1000 ft
800 à 1500m
200 à 500 ft
< 800m
< 200 ft
Symboles :   Orages  Brouillard  Fortes neiges  Fortes précipitations  Vent > 20 kt
SIGMETs :   Divers  Orages  Givrage  Turbulence  Onde Orograph.  Cendres Volcan.







- Altitude de l'aérodrome : 412 ft
- Code IATA : ORE
- Voir les cartes d'approche


LFOJ - Orleans

DERNIER METAR :
  • 121800Z AUTO 21007KT 9999 OVC027 04/02 Q1015 NOSIG

METARs EXPIRÉS :
  • 121730Z AUTO 22007KT 9999 OVC026 04/02 Q1015 NOSIG
  • 121700Z AUTO 23007KT 9999 OVC027 05/02 Q1015 NOSIG
  • 121630Z AUTO 22008KT 9999 BKN030 OVC036 05/02 Q1014 NOSIG
  • 121600Z AUTO 22008KT 9999 OVC034 06/02 Q1014 NOSIG
  • 121530Z AUTO 23010KT 9999 FEW035 OVC052 06/02 Q1014 NOSIG

TAF TAF LFOJ
Valide du 12 à 15h jusqu'au 13 à 15h UTC


121400Z 1215/1315 23012KT CAVOK
BECMG 1222/1224 BKN010
BECMG 1304/1306 19015G25KT 4000 -DZRA SCT007 OVC010
BECMG 1308/1310 8000 NSW OVC009
BECMG 1313/1315 3000 DZRA SCT008 BKN012
Pas de NOTAMs connus pour ce terrain.



MET'MAP, la Météo Aéronautique d'un coup d'oeil ! - Copyright ORBIFLY Décembre 2007 - Disclaimer

ORBIFLY MET'MAP TEAM :

Programmation & Développement : Alexandra Zaïnal
Conception & Développement : Baudouin d'Aumeries
Co-Programmation & Développement : Marc-Olivier Méhu
Soutien technique & logistique : Manuel Goepfert

Contact : metmap@orbifly.com




SOURCES & CREDITS :

   NOAA